createdAt,value
2018-01-27T00:00:33.917Z,962.85
2018-01-27T00:01:33.938Z,962.91
2018-01-27T00:02:33.964Z,962.93
2018-01-27T00:03:33.982Z,962.91
2018-01-27T00:04:33.989Z,962.9
2018-01-27T00:05:34.020Z,962.9
2018-01-27T00:06:34.022Z,962.91
2018-01-27T00:07:34.057Z,962.94
2018-01-27T00:08:34.057Z,962.93
2018-01-27T00:09:34.076Z,962.93
2018-01-27T00:10:34.094Z,962.91
2018-01-27T00:11:34.110Z,962.95
2018-01-27T00:12:34.128Z,962.96
2018-01-27T00:13:34.145Z,962.99
2018-01-27T00:14:34.193Z,963.01
2018-01-27T00:15:34.181Z,963.03
2018-01-27T00:16:34.198Z,963.05
2018-01-27T00:17:34.215Z,963.03
2018-01-27T00:18:34.232Z,963.1
2018-01-27T00:19:34.250Z,963.1
2018-01-27T00:20:34.268Z,963.08
2018-01-27T00:21:34.286Z,963.12
2018-01-27T00:22:34.303Z,963.13
2018-01-27T00:23:34.321Z,963.11
2018-01-27T00:24:34.337Z,963.17
2018-01-27T00:25:34.359Z,963.18
2018-01-27T00:26:34.372Z,963.15
2018-01-27T00:27:34.390Z,963.16
2018-01-27T00:28:34.407Z,963.15
2018-01-27T00:29:34.425Z,963.17
2018-01-27T00:30:34.443Z,963.13
2018-01-27T00:31:34.460Z,963.12
2018-01-27T00:32:34.477Z,963.14
2018-01-27T00:33:34.496Z,963.13
2018-01-27T00:34:34.513Z,963.17
2018-01-27T00:35:34.530Z,963.14
2018-01-27T00:36:34.547Z,963.17
2018-01-27T00:37:34.566Z,963.2
2018-01-27T00:38:34.583Z,963.17
2018-01-27T00:39:34.600Z,963.16
2018-01-27T00:40:34.622Z,963.15
2018-01-27T00:41:34.636Z,963.2
2018-01-27T00:42:34.652Z,963.21
2018-01-27T00:43:34.672Z,963.25
2018-01-27T00:44:34.692Z,963.28
2018-01-27T00:45:34.707Z,963.29
2018-01-27T00:46:34.727Z,963.31
2018-01-27T00:47:34.741Z,963.34
2018-01-27T00:48:34.761Z,963.3
2018-01-27T00:49:34.778Z,963.3
2018-01-27T00:50:34.797Z,963.31
2018-01-27T00:51:34.817Z,963.32
2018-01-27T00:52:34.831Z,963.32
2018-01-27T00:53:34.850Z,963.36
2018-01-27T00:54:34.867Z,963.41
2018-01-27T00:55:34.884Z,963.48
2018-01-27T00:56:34.902Z,963.48
2018-01-27T00:57:34.919Z,963.47
2018-01-27T00:58:34.937Z,963.48
2018-01-27T00:59:34.977Z,963.52
2018-01-27T01:00:34.973Z,963.54
2018-01-27T01:01:34.991Z,963.53
2018-01-27T01:02:35.008Z,963.53
2018-01-27T01:03:35.026Z,963.51
2018-01-27T01:04:35.044Z,963.52
2018-01-27T01:05:35.060Z,963.53
2018-01-27T01:06:35.104Z,963.58
2018-01-27T01:07:35.096Z,963.59
2018-01-27T01:08:35.114Z,963.61
2018-01-27T01:09:35.132Z,963.62
2018-01-27T01:10:35.150Z,963.66
2018-01-27T01:11:35.170Z,963.66
2018-01-27T01:12:35.184Z,963.64
2018-01-27T01:13:35.202Z,963.6
2018-01-27T01:14:35.219Z,963.62
2018-01-27T01:15:35.240Z,963.67
2018-01-27T01:16:35.254Z,963.62
2018-01-27T01:17:35.272Z,963.66
2018-01-27T01:18:35.290Z,963.65
2018-01-27T01:19:35.307Z,963.63
2018-01-27T01:20:35.326Z,963.66
2018-01-27T01:21:35.343Z,963.68
2018-01-27T01:22:35.359Z,963.65
2018-01-27T01:23:35.377Z,963.64
2018-01-27T01:24:35.396Z,963.64
2018-01-27T01:25:35.415Z,963.65
2018-01-27T01:26:35.431Z,963.64
2018-01-27T01:27:35.449Z,963.64
2018-01-27T01:28:35.471Z,963.61
2018-01-27T01:29:35.484Z,963.63
2018-01-27T01:30:35.502Z,963.61
2018-01-27T01:31:35.519Z,963.66
2018-01-27T01:32:35.536Z,963.67
2018-01-27T01:33:35.554Z,963.65
2018-01-27T01:34:35.572Z,963.7
2018-01-27T01:35:35.589Z,963.7
2018-01-27T01:36:35.610Z,963.72
2018-01-27T01:37:35.624Z,963.73
2018-01-27T01:38:35.641Z,963.74
2018-01-27T01:39:35.659Z,963.74
2018-01-27T01:40:35.678Z,963.78
2018-01-27T01:41:35.693Z,963.78
2018-01-27T01:42:35.713Z,963.79
2018-01-27T01:43:35.738Z,963.78
2018-01-27T01:44:35.748Z,963.78
2018-01-27T01:45:35.766Z,963.74
2018-01-27T01:46:35.784Z,963.79
2018-01-27T01:47:35.800Z,963.76
2018-01-27T01:48:35.818Z,963.77
2018-01-27T01:49:35.836Z,963.73
2018-01-27T01:50:35.854Z,963.74
2018-01-27T01:51:35.872Z,963.74
2018-01-27T01:52:35.888Z,963.74
2018-01-27T01:53:35.905Z,963.78
2018-01-27T01:54:35.924Z,963.78
2018-01-27T01:55:35.940Z,963.76
2018-01-27T01:56:35.960Z,963.71
2018-01-27T01:57:35.977Z,963.7
2018-01-27T01:58:35.994Z,963.72
2018-01-27T01:59:36.011Z,963.74
2018-01-27T02:00:36.030Z,963.74
2018-01-27T02:01:36.047Z,963.7
2018-01-27T02:02:36.065Z,963.73
2018-01-27T02:03:36.086Z,963.74
2018-01-27T02:04:36.101Z,963.69
2018-01-27T02:05:36.118Z,963.71
2018-01-27T02:06:36.163Z,963.77
2018-01-27T02:07:36.153Z,963.74
2018-01-27T02:08:36.171Z,963.75
2018-01-27T02:09:36.188Z,963.76
2018-01-27T02:10:36.205Z,963.78
2018-01-27T02:11:36.223Z,963.79
2018-01-27T02:12:36.242Z,963.8
2018-01-27T02:13:36.260Z,963.82
2018-01-27T02:14:36.278Z,963.83
2018-01-27T02:15:36.296Z,963.87
2018-01-27T02:16:36.350Z,963.84
2018-01-27T02:17:36.331Z,963.85
2018-01-27T02:18:36.354Z,963.89
2018-01-27T02:19:36.369Z,963.91
2018-01-27T02:20:36.385Z,963.89
2018-01-27T02:21:36.402Z,963.89
2018-01-27T02:22:36.419Z,963.94
2018-01-27T02:23:36.438Z,964
2018-01-27T02:24:36.456Z,963.99
2018-01-27T02:25:36.473Z,964
2018-01-27T02:26:36.492Z,964.03
2018-01-27T02:27:36.508Z,963.99
2018-01-27T02:28:36.532Z,963.99
2018-01-27T02:29:36.544Z,964
2018-01-27T02:30:36.563Z,964.02
2018-01-27T02:31:36.580Z,964
2018-01-27T02:32:36.597Z,964
2018-01-27T02:33:36.615Z,964.01
2018-01-27T02:34:36.633Z,964.01
2018-01-27T02:35:36.658Z,964
2018-01-27T02:36:36.669Z,964.04
2018-01-27T02:37:36.686Z,964.03
2018-01-27T02:38:36.714Z,964.09
2018-01-27T02:39:36.720Z,964.04
2018-01-27T02:40:36.738Z,964.05
2018-01-27T02:41:36.756Z,964.04
2018-01-27T02:42:36.777Z,964.11
2018-01-27T02:43:36.790Z,964.09
2018-01-27T02:44:36.810Z,964.07
2018-01-27T02:45:36.827Z,964.08
2018-01-27T02:46:36.846Z,964.1
2018-01-27T02:47:36.865Z,964.11
2018-01-27T02:48:36.877Z,964.11
2018-01-27T02:49:36.896Z,964.2
2018-01-27T02:50:36.913Z,964.16
2018-01-27T02:51:36.931Z,964.17
2018-01-27T02:52:36.949Z,964.2
2018-01-27T02:53:36.970Z,964.17
2018-01-27T02:54:36.983Z,964.17
2018-01-27T02:55:37.002Z,964.2
2018-01-27T02:56:37.018Z,964.15
2018-01-27T02:57:37.037Z,964.22
2018-01-27T02:58:37.054Z,964.21
2018-01-27T02:59:37.071Z,964.21
2018-01-27T03:00:37.090Z,964.2
2018-01-27T03:01:37.107Z,964.17
2018-01-27T03:02:37.125Z,964.22
2018-01-27T03:03:37.143Z,964.18
2018-01-27T03:04:37.160Z,964.17
2018-01-27T03:05:37.180Z,964.16
2018-01-27T03:06:37.196Z,964.17
2018-01-27T03:07:37.213Z,964.16
2018-01-27T03:08:37.232Z,964.19
2018-01-27T03:09:37.249Z,964.2
2018-01-27T03:10:37.273Z,964.21
2018-01-27T03:11:37.285Z,964.21
2018-01-27T03:12:37.308Z,964.19
2018-01-27T03:13:37.320Z,964.19
2018-01-27T03:14:37.337Z,964.13
2018-01-27T03:15:37.355Z,964.15
2018-01-27T03:16:37.372Z,964.09
2018-01-27T03:17:37.391Z,964.13
2018-01-27T03:18:37.410Z,964.06
2018-01-27T03:19:37.427Z,964.05
2018-01-27T03:20:37.452Z,964.01
2018-01-27T03:21:37.463Z,963.97
2018-01-27T03:22:37.482Z,964.01
2018-01-27T03:23:37.498Z,963.98
2018-01-27T03:24:37.517Z,964.01
2018-01-27T03:25:37.534Z,964.01
2018-01-27T03:26:37.552Z,963.97
2018-01-27T03:27:37.592Z,963.99
2018-01-27T03:28:37.587Z,963.96
2018-01-27T03:29:37.606Z,963.98
2018-01-27T03:30:37.623Z,963.98
2018-01-27T03:31:37.642Z,964.06
2018-01-27T03:32:37.659Z,964.07
2018-01-27T03:33:37.676Z,964.08
2018-01-27T03:34:37.699Z,964.11
2018-01-27T03:35:37.711Z,964.09
2018-01-27T03:36:37.728Z,964.1
2018-01-27T03:37:37.747Z,964.06
2018-01-27T03:38:37.764Z,964.07
2018-01-27T03:39:37.784Z,964.06
2018-01-27T03:40:37.800Z,964.08
2018-01-27T03:41:37.816Z,964.13
2018-01-27T03:42:37.836Z,964.23
2018-01-27T03:43:37.852Z,964.24
2018-01-27T03:44:37.871Z,964.2
2018-01-27T03:45:37.887Z,964.24
2018-01-27T03:46:37.905Z,964.21
2018-01-27T03:47:37.923Z,964.26
2018-01-27T03:48:37.940Z,964.27
2018-01-27T03:49:37.957Z,964.34
2018-01-27T03:50:37.975Z,964.32
2018-01-27T03:51:37.992Z,964.37
2018-01-27T03:52:38.010Z,964.38
2018-01-27T03:53:38.027Z,964.41
2018-01-27T03:54:38.046Z,964.43
2018-01-27T03:55:38.062Z,964.43
2018-01-27T03:56:38.080Z,964.46
2018-01-27T03:57:38.101Z,964.47
2018-01-27T03:58:38.115Z,964.48
2018-01-27T03:59:38.136Z,964.47
2018-01-27T04:00:38.150Z,964.47
2018-01-27T04:01:38.170Z,964.55
2018-01-27T04:02:38.186Z,964.52
2018-01-27T04:03:38.202Z,964.52
2018-01-27T04:04:38.220Z,964.52
2018-01-27T04:05:38.238Z,964.54
2018-01-27T04:06:38.256Z,964.6
2018-01-27T04:07:38.273Z,964.61
2018-01-27T04:08:38.290Z,964.6
2018-01-27T04:09:38.309Z,964.61
2018-01-27T04:10:38.326Z,964.59
2018-01-27T04:11:38.344Z,964.58
2018-01-27T04:12:38.375Z,964.59
2018-01-27T04:13:38.379Z,964.64
2018-01-27T04:14:38.395Z,964.62
2018-01-27T04:15:38.414Z,964.65
2018-01-27T04:16:38.432Z,964.65
2018-01-27T04:17:38.449Z,964.57
2018-01-27T04:18:38.465Z,964.58
2018-01-27T04:19:38.498Z,964.52
2018-01-27T04:20:38.502Z,964.5
2018-01-27T04:21:38.520Z,964.49
2018-01-27T04:22:38.537Z,964.53
2018-01-27T04:23:38.555Z,964.53
2018-01-27T04:24:38.572Z,964.6
2018-01-27T04:25:38.597Z,964.61
2018-01-27T04:26:38.606Z,964.64
2018-01-27T04:27:38.626Z,964.65
2018-01-27T04:28:38.642Z,964.67
2018-01-27T04:29:38.668Z,964.68
2018-01-27T04:30:38.678Z,964.75
2018-01-27T04:31:38.695Z,964.69
2018-01-27T04:32:38.716Z,964.76
2018-01-27T04:33:38.730Z,964.78
2018-01-27T04:34:38.747Z,964.78
2018-01-27T04:35:38.770Z,964.82
2018-01-27T04:36:38.786Z,964.83
2018-01-27T04:37:38.800Z,964.85
2018-01-27T04:38:38.817Z,964.8
2018-01-27T04:39:38.835Z,964.84
2018-01-27T04:40:38.853Z,964.88
2018-01-27T04:41:38.870Z,964.86
2018-01-27T04:42:38.938Z,964.9
2018-01-27T04:43:38.906Z,964.89
2018-01-27T04:44:38.923Z,964.9
2018-01-27T04:45:38.940Z,964.96
2018-01-27T04:46:38.958Z,964.94
2018-01-27T04:47:38.975Z,964.9
2018-01-27T04:48:38.994Z,964.92
2018-01-27T04:49:39.011Z,964.91
2018-01-27T04:50:39.029Z,964.9
2018-01-27T04:51:39.046Z,964.91
2018-01-27T04:52:39.064Z,964.87
2018-01-27T04:53:39.081Z,964.94
2018-01-27T04:54:39.100Z,964.9
2018-01-27T04:55:39.117Z,964.91
2018-01-27T04:56:39.136Z,964.88
2018-01-27T04:57:39.154Z,964.93
2018-01-27T04:58:39.171Z,964.93
2018-01-27T04:59:39.188Z,964.89
2018-01-27T05:00:39.206Z,964.93
2018-01-27T05:01:39.224Z,964.94
2018-01-27T05:02:39.281Z,964.93
2018-01-27T05:03:39.259Z,964.96
2018-01-27T05:04:39.293Z,964.94
2018-01-27T05:05:39.295Z,964.92
2018-01-27T05:06:39.316Z,964.88
2018-01-27T05:07:39.331Z,964.83
2018-01-27T05:08:39.349Z,964.87
2018-01-27T05:09:39.370Z,964.89
2018-01-27T05:10:39.383Z,964.92
2018-01-27T05:11:39.417Z,965
2018-01-27T05:12:39.419Z,965.02
2018-01-27T05:13:39.486Z,965.08
2018-01-27T05:14:39.455Z,965.14
2018-01-27T05:15:39.473Z,965.15
2018-01-27T05:16:39.488Z,965.16
2018-01-27T05:17:39.507Z,965.14
2018-01-27T05:18:39.525Z,965.18
2018-01-27T05:19:39.542Z,965.19
2018-01-27T05:20:39.559Z,965.21
2018-01-27T05:21:39.577Z,965.26
2018-01-27T05:22:39.595Z,965.32
2018-01-27T05:23:39.612Z,965.35
2018-01-27T05:24:39.630Z,965.41
2018-01-27T05:25:39.648Z,965.46
2018-01-27T05:26:39.665Z,965.49
2018-01-27T05:27:39.682Z,965.52
2018-01-27T05:28:39.700Z,965.55
2018-01-27T05:29:39.719Z,965.56
2018-01-27T05:30:39.735Z,965.6
2018-01-27T05:31:39.752Z,965.63
2018-01-27T05:32:39.770Z,965.67
2018-01-27T05:33:39.788Z,965.66
2018-01-27T05:34:39.806Z,965.68
2018-01-27T05:35:39.821Z,965.65
2018-01-27T05:36:39.841Z,965.71
2018-01-27T05:37:39.857Z,965.71
2018-01-27T05:38:39.875Z,965.72
2018-01-27T05:39:39.892Z,965.74
2018-01-27T05:40:39.911Z,965.75
2018-01-27T05:41:39.937Z,965.77
2018-01-27T05:42:39.945Z,965.81
2018-01-27T05:43:39.963Z,965.79
2018-01-27T05:44:39.981Z,965.84
2018-01-27T05:45:40.000Z,965.86
2018-01-27T05:46:40.016Z,965.91
2018-01-27T05:47:40.035Z,965.88
2018-01-27T05:48:40.055Z,965.9
2018-01-27T05:49:40.068Z,965.96
2018-01-27T05:50:40.086Z,965.94
2018-01-27T05:51:40.103Z,965.9
2018-01-27T05:52:40.126Z,966
2018-01-27T05:53:40.138Z,966.02
2018-01-27T05:54:40.156Z,966.05
2018-01-27T05:55:40.173Z,966.08
2018-01-27T05:56:40.213Z,966.11
2018-01-27T05:57:40.208Z,966.11
2018-01-27T05:58:40.226Z,966.1
2018-01-27T05:59:40.244Z,966.11
2018-01-27T06:00:40.261Z,966.11
2018-01-27T06:01:40.282Z,966.12
2018-01-27T06:02:40.299Z,966.16
2018-01-27T06:03:40.314Z,966.1
2018-01-27T06:04:40.331Z,966.1
2018-01-27T06:05:40.349Z,966.12
2018-01-27T06:06:40.366Z,966.14
2018-01-27T06:07:40.385Z,966.16
2018-01-27T06:08:40.402Z,966.19
2018-01-27T06:09:40.419Z,966.2
2018-01-27T06:10:40.437Z,966.2
2018-01-27T06:11:40.455Z,966.16
2018-01-27T06:12:40.473Z,966.19
2018-01-27T06:13:40.490Z,966.21
2018-01-27T06:14:40.508Z,966.16
2018-01-27T06:15:40.524Z,966.2
2018-01-27T06:16:40.542Z,966.23
2018-01-27T06:17:40.560Z,966.22
2018-01-27T06:18:40.577Z,966.2
2018-01-27T06:19:40.595Z,966.25
2018-01-27T06:20:40.613Z,966.27
2018-01-27T06:21:40.629Z,966.3
2018-01-27T06:22:40.646Z,966.33
2018-01-27T06:23:40.667Z,966.4
2018-01-27T06:24:40.681Z,966.36
2018-01-27T06:25:40.704Z,966.37
2018-01-27T06:26:40.737Z,966.37
2018-01-27T06:27:40.734Z,966.4
2018-01-27T06:28:40.751Z,966.42
2018-01-27T06:29:40.768Z,966.44
2018-01-27T06:30:40.786Z,966.46
2018-01-27T06:31:40.804Z,966.48
2018-01-27T06:32:40.819Z,966.52
2018-01-27T06:33:40.847Z,966.51
2018-01-27T06:34:40.858Z,966.52
2018-01-27T06:35:40.872Z,966.59
2018-01-27T06:36:40.891Z,966.55
2018-01-27T06:37:40.905Z,966.54
2018-01-27T06:38:40.923Z,966.54
2018-01-27T06:39:40.941Z,966.57
2018-01-27T06:40:40.973Z,966.54
2018-01-27T06:41:40.973Z,966.58
2018-01-27T06:42:40.992Z,966.63
2018-01-27T06:43:41.010Z,966.66
2018-01-27T06:44:41.025Z,966.67
2018-01-27T06:45:41.046Z,966.72
2018-01-27T06:46:41.065Z,966.69
2018-01-27T06:47:41.078Z,966.71
2018-01-27T06:48:41.096Z,966.72
2018-01-27T06:49:41.117Z,966.75
2018-01-27T06:50:41.130Z,966.76
2018-01-27T06:51:41.146Z,966.78
2018-01-27T06:52:41.163Z,966.82
2018-01-27T06:53:41.183Z,966.83
2018-01-27T06:54:41.198Z,966.86
2018-01-27T06:55:41.219Z,966.84
2018-01-27T06:56:41.232Z,966.79
2018-01-27T06:57:41.251Z,966.8
2018-01-27T06:58:41.268Z,966.83
2018-01-27T06:59:41.285Z,966.87
2018-01-27T07:00:41.302Z,966.84
2018-01-27T07:01:41.320Z,966.87
2018-01-27T07:02:41.336Z,966.9
2018-01-27T07:03:41.356Z,966.92
2018-01-27T07:04:41.372Z,966.94
2018-01-27T07:05:41.390Z,966.99
2018-01-27T07:06:41.407Z,966.98
2018-01-27T07:07:41.423Z,967.01
2018-01-27T07:08:41.446Z,967.02
2018-01-27T07:09:41.458Z,967.01
2018-01-27T07:10:41.487Z,967.06
2018-01-27T07:11:41.495Z,967.02
2018-01-27T07:12:41.511Z,967.09
2018-01-27T07:13:41.527Z,967.08
2018-01-27T07:14:41.546Z,967.15
2018-01-27T07:15:41.563Z,967.15
2018-01-27T07:16:41.581Z,967.22
2018-01-27T07:17:41.610Z,967.17
2018-01-27T07:18:41.617Z,967.21
2018-01-27T07:19:41.635Z,967.24
2018-01-27T07:20:41.652Z,967.23
2018-01-27T07:21:41.667Z,967.27
2018-01-27T07:22:41.685Z,967.26
2018-01-27T07:23:41.704Z,967.28
2018-01-27T07:24:41.719Z,967.31
2018-01-27T07:25:41.737Z,967.31
2018-01-27T07:26:41.757Z,967.3
2018-01-27T07:27:41.772Z,967.33
2018-01-27T07:28:41.790Z,967.32
2018-01-27T07:29:41.806Z,967.35
2018-01-27T07:30:41.824Z,967.35
2018-01-27T07:31:41.841Z,967.38
2018-01-27T07:32:41.859Z,967.39
2018-01-27T07:33:41.876Z,967.43
2018-01-27T07:34:41.894Z,967.42
2018-01-27T07:35:41.911Z,967.47
2018-01-27T07:36:41.928Z,967.44
2018-01-27T07:37:41.949Z,967.48
2018-01-27T07:38:41.962Z,967.42
2018-01-27T07:39:41.980Z,967.44
2018-01-27T07:40:41.996Z,967.45
2018-01-27T07:41:42.014Z,967.47
2018-01-27T07:42:42.031Z,967.51
2018-01-27T07:43:42.049Z,967.53
2018-01-27T07:44:42.065Z,967.55
2018-01-27T07:45:42.084Z,967.6
2018-01-27T07:46:42.134Z,967.56
2018-01-27T07:47:42.120Z,967.53
2018-01-27T07:48:42.135Z,967.58
2018-01-27T07:49:42.152Z,967.57
2018-01-27T07:50:42.171Z,967.57
2018-01-27T07:51:42.192Z,967.63
2018-01-27T07:52:42.205Z,967.62
2018-01-27T07:53:42.222Z,967.63
2018-01-27T07:54:42.245Z,967.69
2018-01-27T07:55:42.257Z,967.74
2018-01-27T07:56:42.274Z,967.75
2018-01-27T07:57:42.291Z,967.8
2018-01-27T07:58:42.308Z,967.81
2018-01-27T07:59:42.326Z,967.81
2018-01-27T08:00:42.344Z,967.82
2018-01-27T08:01:42.361Z,967.8
2018-01-27T08:02:42.378Z,967.84
2018-01-27T08:03:42.401Z,967.86
2018-01-27T08:04:42.414Z,967.87
2018-01-27T08:05:42.433Z,967.86
2018-01-27T08:06:42.450Z,967.91
2018-01-27T08:07:42.466Z,967.92
2018-01-27T08:08:42.483Z,967.89
2018-01-27T08:09:42.500Z,967.9
2018-01-27T08:10:42.519Z,967.87
2018-01-27T08:11:42.535Z,967.88
2018-01-27T08:12:42.558Z,967.91
2018-01-27T08:13:42.570Z,967.87
2018-01-27T08:14:42.586Z,967.9
2018-01-27T08:15:42.603Z,967.86
2018-01-27T08:16:42.621Z,967.87
2018-01-27T08:17:42.637Z,967.86
2018-01-27T08:18:42.655Z,967.92
2018-01-27T08:19:42.673Z,967.91
2018-01-27T08:20:42.690Z,967.91
2018-01-27T08:21:42.708Z,967.92
2018-01-27T08:22:42.725Z,967.94
2018-01-27T08:23:42.741Z,967.94
2018-01-27T08:24:42.759Z,967.98
2018-01-27T08:25:42.777Z,968.02
2018-01-27T08:26:42.800Z,968.03
2018-01-27T08:27:42.810Z,968.05
2018-01-27T08:28:42.828Z,968.09
2018-01-27T08:29:42.846Z,968.09
2018-01-27T08:30:42.861Z,968.09
2018-01-27T08:31:42.881Z,968.09
2018-01-27T08:32:42.899Z,968.13
2018-01-27T08:33:42.914Z,968.11
2018-01-27T08:34:42.931Z,968.1
2018-01-27T08:35:42.948Z,968.16
2018-01-27T08:36:42.967Z,968.12
2018-01-27T08:37:42.983Z,968.09
2018-01-27T08:38:43.000Z,968.16
2018-01-27T08:39:43.040Z,968.15
2018-01-27T08:40:43.037Z,968.16
2018-01-27T08:41:43.052Z,968.19
2018-01-27T08:42:43.071Z,968.25
2018-01-27T08:43:43.087Z,968.28
2018-01-27T08:44:43.105Z,968.25
2018-01-27T08:45:43.122Z,968.25
2018-01-27T08:46:43.140Z,968.24
2018-01-27T08:47:43.159Z,968.26
2018-01-27T08:48:43.175Z,968.27
2018-01-27T08:49:43.196Z,968.23
2018-01-27T08:50:43.209Z,968.23
2018-01-27T08:51:43.228Z,968.24
2018-01-27T08:52:43.245Z,968.29
2018-01-27T08:53:43.261Z,968.3
2018-01-27T08:54:43.280Z,968.34
2018-01-27T08:55:43.297Z,968.37
2018-01-27T08:56:43.316Z,968.4
2018-01-27T08:57:43.332Z,968.44
2018-01-27T08:58:43.351Z,968.43
2018-01-27T08:59:43.368Z,968.43
2018-01-27T09:00:43.384Z,968.45
2018-01-27T09:01:43.403Z,968.49
2018-01-27T09:02:43.420Z,968.47
2018-01-27T09:03:43.437Z,968.49
2018-01-27T09:04:43.455Z,968.47
2018-01-27T09:05:43.472Z,968.52
2018-01-27T09:06:43.490Z,968.58
2018-01-27T09:07:43.504Z,968.55
2018-01-27T09:08:43.531Z,968.57
2018-01-27T09:09:43.547Z,968.57
2018-01-27T09:10:43.558Z,968.59
2018-01-27T09:11:43.575Z,968.61
2018-01-27T09:12:43.592Z,968.62
2018-01-27T09:13:43.610Z,968.65
2018-01-27T09:14:43.627Z,968.71
2018-01-27T09:15:43.644Z,968.73
2018-01-27T09:16:43.681Z,968.78
2018-01-27T09:17:43.681Z,968.77
2018-01-27T09:18:43.696Z,968.81
2018-01-27T09:19:43.713Z,968.82
2018-01-27T09:20:43.732Z,968.8
2018-01-27T09:21:43.748Z,968.75
2018-01-27T09:22:43.766Z,968.83
2018-01-27T09:23:43.802Z,968.82
2018-01-27T09:24:43.801Z,968.81
2018-01-27T09:25:43.818Z,968.86
2018-01-27T09:26:43.836Z,968.82
2018-01-27T09:27:43.853Z,968.86
2018-01-27T09:28:43.870Z,968.86
2018-01-27T09:29:43.888Z,968.86
2018-01-27T09:30:43.906Z,968.9
2018-01-27T09:31:43.952Z,968.93
2018-01-27T09:32:43.940Z,968.91
2018-01-27T09:33:43.958Z,968.96
2018-01-27T09:34:43.976Z,968.92
2018-01-27T09:35:43.993Z,968.97
2018-01-27T09:36:44.009Z,968.94
2018-01-27T09:37:44.026Z,968.95
2018-01-27T09:38:44.047Z,968.92
2018-01-27T09:39:44.062Z,968.94
2018-01-27T09:40:44.081Z,968.93
2018-01-27T09:41:44.097Z,968.95
2018-01-27T09:42:44.116Z,968.96
2018-01-27T09:43:44.133Z,968.96
2018-01-27T09:44:44.150Z,968.96
2018-01-27T09:45:44.168Z,968.96
2018-01-27T09:46:44.189Z,968.99
2018-01-27T09:47:44.225Z,969.05
2018-01-27T09:48:44.220Z,969.02
2018-01-27T09:49:44.240Z,969.01
2018-01-27T09:50:44.256Z,969.04
2018-01-27T09:51:44.280Z,969.07
2018-01-27T09:52:44.293Z,969.12
2018-01-27T09:53:44.312Z,969.12
2018-01-27T09:54:44.329Z,969.11
2018-01-27T09:55:44.351Z,969.07
2018-01-27T09:56:44.365Z,969.13
2018-01-27T09:57:44.381Z,969.1
2018-01-27T09:58:44.400Z,969.1
2018-01-27T09:59:44.418Z,969.06
2018-01-27T10:00:44.437Z,969.07
2018-01-27T10:01:44.454Z,969.04
2018-01-27T10:02:44.474Z,969.05
2018-01-27T10:03:44.489Z,969.12
2018-01-27T10:04:44.510Z,969.1
2018-01-27T10:05:44.528Z,969.14
2018-01-27T10:06:44.544Z,969.11
2018-01-27T10:07:44.564Z,969.05
2018-01-27T10:08:44.598Z,969.03
2018-01-27T10:09:44.598Z,969.08
2018-01-27T10:10:44.616Z,969.08
2018-01-27T10:11:44.636Z,969.11
2018-01-27T10:12:44.653Z,969.09
2018-01-27T10:13:44.673Z,969.15
2018-01-27T10:14:44.689Z,969.17
2018-01-27T10:15:44.722Z,969.21
2018-01-27T10:16:44.729Z,969.22
2018-01-27T10:17:44.745Z,969.24
2018-01-27T10:18:44.763Z,969.18
2018-01-27T10:19:44.781Z,969.22
2018-01-27T10:20:44.803Z,969.23
2018-01-27T10:21:44.867Z,969.2
2018-01-27T10:22:44.837Z,969.14
2018-01-27T10:23:44.856Z,969.17
2018-01-27T10:24:44.875Z,969.17
2018-01-27T10:25:44.897Z,969.13
2018-01-27T10:26:44.913Z,969.13
2018-01-27T10:28:44.948Z,969.09
2018-01-27T10:29:44.966Z,969.09
2018-01-27T10:30:45.010Z,969.09
2018-01-27T10:31:45.006Z,969.1
2018-01-27T10:32:45.027Z,969.13
2018-01-27T10:33:45.043Z,969.12
2018-01-27T10:34:45.061Z,969.13
2018-01-27T10:35:45.080Z,969.13
2018-01-27T10:36:45.100Z,969.14
2018-01-27T10:37:45.117Z,969.11
2018-01-27T10:38:45.136Z,969.09
2018-01-27T10:39:45.155Z,969.09
2018-01-27T10:40:45.174Z,969.11
2018-01-27T10:41:45.193Z,969.04
2018-01-27T10:42:45.212Z,969.04
2018-01-27T10:43:45.231Z,969.01
2018-01-27T10:44:45.251Z,969.05
2018-01-27T10:45:45.268Z,969.03
2018-01-27T10:46:45.292Z,969
2018-01-27T10:47:45.305Z,968.99
2018-01-27T10:48:45.326Z,969.05
2018-01-27T10:49:45.343Z,969.02
2018-01-27T10:50:45.363Z,969.04
2018-01-27T10:51:45.381Z,969.03
2018-01-27T10:52:45.401Z,969.08
2018-01-27T10:53:45.421Z,969.02
2018-01-27T10:54:45.440Z,969.05
2018-01-27T10:55:45.459Z,969.06
2018-01-27T10:56:45.477Z,968.97
2018-01-27T10:57:45.498Z,969.02
2018-01-27T10:58:45.517Z,969.03
2018-01-27T10:59:45.537Z,969.04
2018-01-27T11:00:45.576Z,969.03
2018-01-27T11:01:45.573Z,969.04
2018-01-27T11:02:45.594Z,969.02
2018-01-27T11:03:45.613Z,969.03
2018-01-27T11:04:45.636Z,969.06
2018-01-27T11:05:45.652Z,969.07
2018-01-27T11:06:45.673Z,969.01
2018-01-27T11:07:45.703Z,969.03
2018-01-27T11:08:45.712Z,969.06
2018-01-27T11:09:45.730Z,969.01
2018-01-27T11:10:45.750Z,969.04
2018-01-27T11:11:45.769Z,969.03
2018-01-27T11:12:45.789Z,969
2018-01-27T11:13:45.811Z,968.98
2018-01-27T11:14:45.829Z,968.96
2018-01-27T11:15:45.862Z,969.03
2018-01-27T11:16:45.867Z,969.06
2018-01-27T11:17:45.887Z,969.04
2018-01-27T11:18:45.906Z,969.03
2018-01-27T11:19:45.925Z,969.01
2018-01-27T11:20:45.948Z,969
2018-01-27T11:21:45.964Z,968.98
2018-01-27T11:22:45.983Z,969
2018-01-27T11:23:46.021Z,968.98
2018-01-27T11:24:46.022Z,968.97
2018-01-27T11:25:46.040Z,968.99
2018-01-27T11:26:46.063Z,968.95
2018-01-27T11:27:46.080Z,968.98
2018-01-27T11:28:46.099Z,969
2018-01-27T11:29:46.118Z,969.04
2018-01-27T11:30:46.147Z,969.03
2018-01-27T11:31:46.157Z,969.01
2018-01-27T11:32:46.178Z,969.06
2018-01-27T11:33:46.196Z,969.06
2018-01-27T11:34:46.215Z,969.03
2018-01-27T11:35:46.235Z,969.01
2018-01-27T11:36:46.256Z,969.04
2018-01-27T11:37:46.274Z,969.03
2018-01-27T11:38:46.305Z,969.01
2018-01-27T11:39:46.315Z,969.05
2018-01-27T11:40:46.332Z,969.01
2018-01-27T11:41:46.349Z,969.06
2018-01-27T11:42:46.371Z,969.02
2018-01-27T11:43:46.390Z,969.06
2018-01-27T11:44:46.409Z,969.03
2018-01-27T11:45:46.432Z,969.02
2018-01-27T11:46:46.447Z,969.03
2018-01-27T11:47:46.466Z,969
2018-01-27T11:48:46.486Z,968.96
2018-01-27T11:49:46.504Z,968.99
2018-01-27T11:50:46.524Z,968.99
2018-01-27T11:51:46.543Z,968.95
2018-01-27T11:52:46.562Z,968.96
2018-01-27T11:53:46.590Z,969.01
2018-01-27T11:54:46.601Z,968.98
2018-01-27T11:55:46.619Z,968.97
2018-01-27T11:56:46.640Z,968.94
2018-01-27T11:57:46.659Z,968.97
2018-01-27T11:58:46.678Z,968.94
2018-01-27T11:59:46.697Z,968.95
2018-01-27T12:00:46.718Z,968.93
2018-01-27T12:01:46.735Z,968.97
2018-01-27T12:02:46.753Z,968.95
2018-01-27T12:03:46.773Z,968.99
2018-01-27T12:04:46.795Z,969
2018-01-27T12:05:46.816Z,969.03
2018-01-27T12:06:46.831Z,969.07
2018-01-27T12:07:46.850Z,969.13
2018-01-27T12:08:46.875Z,969.15
2018-01-27T12:09:46.888Z,969.16
2018-01-27T12:10:46.927Z,969.17
2018-01-27T12:11:46.928Z,969.2
2018-01-27T12:12:46.950Z,969.18
2018-01-27T12:13:46.964Z,969.22
2018-01-27T12:14:46.984Z,969.17
2018-01-27T12:15:47.006Z,969.2
2018-01-27T12:16:47.023Z,969.21
2018-01-27T12:17:47.041Z,969.17
2018-01-27T12:18:47.060Z,969.21
2018-01-27T12:19:47.080Z,969.24
2018-01-27T12:20:47.101Z,969.27
2018-01-27T12:21:47.130Z,969.25
2018-01-27T12:22:47.136Z,969.27
2018-01-27T12:23:47.159Z,969.3
2018-01-27T12:24:47.174Z,969.26
2018-01-27T12:25:47.193Z,969.29
2018-01-27T12:26:47.212Z,969.29
2018-01-27T12:27:47.243Z,969.32
2018-01-27T12:28:47.250Z,969.31
2018-01-27T12:29:47.269Z,969.32
2018-01-27T12:30:47.289Z,969.32
2018-01-27T12:31:47.305Z,969.37
2018-01-27T12:32:47.325Z,969.37